Time;durP1;ratioP1;P1;durP2;ratioP2;P2;SDS_P1;SDS_P2;PMS_P1;PMS_P2;Temp;Humidity;BMP_temperature;BMP_pressure;BME280_temperature;BME280_humidity;BME280_pressure;Samples;Min_cycle;Max_cycle;Signal;HPM_P1;HPM_P2
2022/11/16 00:02:13;;;;;;;35.27;25.20;;;;;;;8.96;96.35;100661.31;4993738;28;20203;-72
2022/11/16 00:04:38;;;;;;;36.23;25.93;;;;;;;8.91;96.25;100648.44;4993206;28;20203;-70
2022/11/16 00:07:05;;;;;;;35.33;25.93;;;;;;;8.87;96.71;100653.44;4992234;28;20218;-74
2022/11/16 00:09:31;;;;;;;35.63;25.13;;;;;;;8.87;97.05;100656.84;4988461;28;20219;-74
2022/11/16 00:12:04;;;;;;;39.20;26.23;;;;;;;8.85;96.21;100644.88;4989250;28;20224;-74
2022/11/16 00:14:34;;;;;;;35.67;25.20;;;;;;;8.80;96.93;100638.81;4988168;28;20188;-73
2022/11/16 00:17:00;;;;;;;38.87;26.40;;;;;;;8.78;96.48;100632.78;5002526;28;20227;-73
2022/11/16 00:19:27;;;;;;;38.47;26.50;;;;;;;8.76;96.35;100634.47;5007858;28;20235;-73
2022/11/16 00:21:53;;;;;;;36.80;26.07;;;;;;;8.73;97.22;100634.38;4991882;28;20183;-72
2022/11/16 00:24:20;;;;;;;36.50;26.87;;;;;;;8.69;96.98;100628.34;4991946;28;20202;-72
2022/11/16 00:26:46;;;;;;;39.37;26.63;;;;;;;8.69;96.94;100620.69;4991553;28;20589;-72
2022/11/16 00:29:30;;;;;;;39.83;26.40;;;;;;;8.65;97.41;100631.66;5005648;28;20673;-72
2022/11/16 00:31:55;;;;;;;39.97;27.63;;;;;;;8.64;97.03;100631.63;4990138;28;20243;-73
2022/11/16 00:34:21;;;;;;;44.73;27.53;;;;;;;8.58;98.04;100644.25;4990463;28;20246;-72
2022/11/16 00:36:47;;;;;;;43.17;27.33;;;;;;;8.60;97.57;100638.34;4990539;28;20188;-74
2022/11/16 00:39:14;;;;;;;40.33;27.20;;;;;;;8.56;97.37;100628.88;4990477;28;20182;-73
2022/11/16 00:41:41;;;;;;;43.07;28.10;;;;;;;8.57;98.29;100622.09;4991655;28;20184;-73
2022/11/16 00:44:08;;;;;;;41.73;27.53;;;;;;;8.56;97.70;100617.81;5006589;28;20211;-71
2022/11/16 00:46:33;;;;;;;40.13;26.43;;;;;;;8.53;97.60;100616.03;5006466;28;20191;-72
2022/11/16 00:49:00;;;;;;;43.43;28.80;;;;;;;8.51;98.13;100611.72;4989949;28;20192;-74
2022/11/16 00:51:25;;;;;;;43.13;28.27;;;;;;;8.50;97.85;100607.47;4991370;28;20212;-72
2022/11/16 00:53:51;;;;;;;42.27;27.23;;;;;;;8.48;98.32;100607.41;5006455;28;20190;-73
2022/11/16 00:56:16;;;;;;;45.20;29.33;;;;;;;8.45;98.67;100603.94;4991419;28;20188;-74
2022/11/16 00:58:42;;;;;;;44.97;29.00;;;;;;;8.44;98.21;100594.56;5006677;28;20192;-73
2022/11/16 01:01:10;;;;;;;44.00;28.00;;;;;;;8.43;98.19;100598.81;4995175;28;20208;-73
2022/11/16 01:03:36;;;;;;;42.93;26.97;;;;;;;8.43;98.81;100611.56;5006558;28;20192;-70
2022/11/16 01:06:04;;;;;;;41.10;27.30;;;;;;;8.39;98.95;100614.84;4975542;28;20180;-73
2022/11/16 01:08:30;;;;;;;43.37;27.37;;;;;;;8.39;98.70;100619.97;5004965;28;20200;-72
2022/11/16 01:12:07;;;;;;;41.90;27.63;;;;;;;8.40;99.10;100625.94;4991176;28;20215;-71
2022/11/16 01:13:42;;;;;;;43.53;27.50;;;;;;;8.41;98.00;100617.44;4987340;28;20191;-73
2022/11/16 01:16:07;;;;;;;42.07;26.87;;;;;;;8.33;98.10;100612.16;5006263;28;20186;-72
2022/11/16 01:18:32;;;;;;;43.27;27.70;;;;;;;8.36;99.38;100621.56;4991190;28;20250;-72
2022/11/16 01:20:58;;;;;;;40.33;27.33;;;;;;;8.34;98.73;100619.00;4954071;28;1052715;-72
2022/11/16 01:23:23;;;;;;;41.80;26.93;;;;;;;8.31;99.18;100621.47;4992197;28;20631;-72
2022/11/16 01:25:57;;;;;;;39.73;26.13;;;;;;;8.33;98.84;100614.72;4992832;28;20256;-74
2022/11/16 01:28:22;;;;;;;46.87;28.50;;;;;;;8.32;99.25;100613.00;4990117;28;20219;-73
2022/11/16 01:30:49;;;;;;;43.07;27.23;;;;;;;8.32;98.14;100610.44;5006056;28;20212;-73
2022/11/16 01:33:15;;;;;;;44.73;29.07;;;;;;;8.29;98.99;100606.97;5006725;28;20536;-73
2022/11/16 01:35:43;;;;;;;45.50;28.13;;;;;;;8.27;99.13;100606.94;5000813;28;20289;-74
2022/11/16 01:38:10;;;;;;;45.90;27.67;;;;;;;8.23;98.60;100605.13;5007055;28;20279;-73
2022/11/16 01:40:37;;;;;;;42.63;26.73;;;;;;;8.23;99.21;100602.56;4991675;28;20290;-73
2022/11/16 01:43:03;;;;;;;43.43;28.63;;;;;;;8.24;98.50;100606.00;4994530;28;20234;-74
2022/11/16 01:45:39;;;;;;;43.43;27.33;;;;;;;8.23;98.63;100599.16;4994446;28;20668;-73
2022/11/16 01:48:10;;;;;;;43.87;27.37;;;;;;;8.20;99.15;100602.47;4989404;28;20196;-73
2022/11/16 01:50:37;;;;;;;44.97;26.53;;;;;;;8.23;98.98;100606.78;4986758;28;20267;-72
2022/11/16 01:53:04;;;;;;;39.77;26.93;;;;;;;8.22;98.56;100592.31;5004692;28;20188;-74
2022/11/16 01:55:43;;;;;;;44.23;27.70;;;;;;;8.15;99.49;100588.72;5005051;28;20571;-73
2022/11/16 01:58:41;;;;;;;44.73;28.10;;;;;;;8.10;99.34;100582.66;4992075;28;20262;-74
2022/11/16 02:01:18;;;;;;;43.90;27.63;;;;;;;8.08;99.21;100574.13;5005254;28;20295;-70
2022/11/16 02:03:49;;;;;;;47.40;28.47;;;;;;;8.08;99.37;100571.56;4988852;28;20216;-74
2022/11/16 02:06:37;;;;;;;45.23;28.60;;;;;;;8.08;98.89;100568.13;4984024;28;20670;-73
2022/11/16 02:10:03;;;;;;;44.77;26.50;;;;;;;8.04;99.23;100566.34;4989675;28;20192;-72
2022/11/16 02:12:50;;;;;;;42.37;25.50;;;;;;;8.08;99.55;100566.47;4993148;28;20204;-73
2022/11/16 02:15:23;;;;;;;44.40;27.03;;;;;;;8.06;98.76;100573.19;4994618;28;20192;-73
2022/11/16 02:18:02;;;;;;;43.50;27.77;;;;;;;8.04;99.35;100574.88;5005353;28;20724;-73
2022/11/16 02:20:47;;;;;;;45.67;27.43;;;;;;;8.03;99.44;100567.16;4986034;28;20221;-74
2022/11/16 02:23:50;;;;;;;43.90;27.00;;;;;;;8.04;99.43;100562.13;4987283;28;20610;-71
2022/11/16 02:26:46;;;;;;;45.97;27.20;;;;;;;8.02;99.45;100550.16;4989491;28;20195;-73
2022/11/16 02:29:20;;;;;;;47.80;27.93;;;;;;;8.00;99.49;100551.78;4985171;28;20192;-73
2022/11/16 02:32:00;;;;;;;46.57;27.33;;;;;;;8.01;98.57;100563.72;4980137;28;20597;-72
2022/11/16 02:34:32;;;;;;;45.20;27.17;;;;;;;7.97;99.55;100562.78;4979627;28;20187;-73
2022/11/16 02:37:02;;;;;;;43.63;26.27;;;;;;;7.98;99.04;100563.66;4988874;28;20193;-72
2022/11/16 02:39:30;;;;;;;50.97;28.07;;;;;;;7.96;99.68;100565.28;4989358;28;20261;-71
2022/11/16 02:41:58;;;;;;;48.20;27.93;;;;;;;7.98;99.46;100549.22;4988415;28;20192;-71
2022/11/16 02:44:34;;;;;;;47.97;27.27;;;;;;;7.99;99.86;100550.94;4983767;28;20649;-73
2022/11/16 02:47:04;;;;;;;47.27;28.03;;;;;;;8.00;98.99;100547.56;4984211;28;20199;-73
2022/11/16 02:49:39;;;;;;;49.50;28.27;;;;;;;7.98;99.18;100550.91;4987822;28;20219;-73
2022/11/16 02:52:04;;;;;;;48.27;28.83;;;;;;;7.99;99.33;100547.53;4983972;28;20225;-73
2022/11/16 02:54:30;;;;;;;50.77;29.03;;;;;;;7.97;99.77;100541.53;4986520;28;20968;-73
2022/11/16 02:57:02;;;;;;;51.17;28.20;;;;;;;7.95;99.89;100538.94;5004024;28;20282;-72
2022/11/16 02:59:56;;;;;;;52.60;30.60;;;;;;;7.96;99.87;100539.78;4988161;28;20207;-73
2022/11/16 03:02:29;;;;;;;51.27;29.07;;;;;;;7.93;99.11;100539.72;4986940;28;20203;-73
2022/11/16 03:05:13;;;;;;;54.03;29.60;;;;;;;7.97;100.00;100542.38;4985520;28;20275;-72
2022/11/16 03:07:59;;;;;;;51.53;29.37;;;;;;;7.97;99.57;100552.56;4986213;28;20231;-72
2022/11/16 03:13:15;;;;;;;49.67;27.97;;;;;;;7.92;100.00;100543.94;4982259;28;20257;-71
2022/11/16 03:15:42;;;;;;;50.00;30.27;;;;;;;7.90;99.39;100548.16;4986975;28;20206;-71
2022/11/16 03:18:14;;;;;;;51.70;28.93;;;;;;;7.88;99.89;100539.59;4988863;28;20243;-72
2022/11/16 03:20:42;;;;;;;53.90;31.60;;;;;;;7.84;99.84;100542.88;4988014;28;20361;-72
2022/11/16 03:23:11;;;;;;;53.17;29.87;;;;;;;7.92;99.65;100543.09;4986868;28;20195;-72
2022/11/16 03:25:47;;;;;;;51.23;29.23;;;;;;;7.91;100.00;100537.13;4987102;28;20672;-73
2022/11/16 03:28:32;;;;;;;48.60;28.17;;;;;;;7.91;100.00;100543.91;4970290;28;20645;-71
2022/11/16 03:31:06;;;;;;;49.13;29.30;;;;;;;7.91;99.69;100554.09;4999451;28;20262;-72
2022/11/16 03:33:38;;;;;;;48.20;27.73;;;;;;;7.87;100.00;100558.28;4988301;28;20192;-75
2022/11/16 03:36:28;;;;;;;50.97;28.57;;;;;;;7.87;99.74;100550.63;4997440;28;20727;-74
2022/11/16 03:39:00;;;;;;;55.20;28.20;;;;;;;7.88;100.00;100554.88;4986035;28;20235;-73
2022/11/16 03:41:27;;;;;;;48.33;28.73;;;;;;;7.83;99.68;100553.06;5004676;28;20214;-73
2022/11/16 03:43:55;;;;;;;48.37;28.07;;;;;;;7.81;99.28;100542.84;4989829;28;20211;-73
2022/11/16 03:46:22;;;;;;;48.20;27.37;;;;;;;7.82;99.71;100536.91;5002857;28;20187;-73
2022/11/16 03:48:55;;;;;;;50.87;27.70;;;;;;;7.82;99.89;100534.34;4987190;28;20557;-73
2022/11/16 03:51:24;;;;;;;51.30;28.93;;;;;;;7.82;99.87;100533.47;4982949;28;20210;-73
2022/11/16 03:53:49;;;;;;;49.57;27.20;;;;;;;7.82;100.00;100542.00;4998243;28;20211;-74
2022/11/16 03:56:15;;;;;;;51.57;27.87;;;;;;;7.81;100.00;100539.41;4994746;28;20215;-73
2022/11/16 03:58:40;;;;;;;53.23;28.53;;;;;;;7.80;99.44;100550.44;4988561;28;20199;-73
2022/11/16 04:01:06;;;;;;;50.03;28.30;;;;;;;7.78;100.00;100550.38;4988364;28;20214;-73
2022/11/16 04:03:31;;;;;;;50.20;28.80;;;;;;;7.76;100.00;100548.63;4984071;28;20196;-73
2022/11/16 04:25:34;;;;;;;51.33;28.60;;;;;;;7.68;100.00;100548.44;4987655;28;20216;-73
2022/11/16 04:28:13;;;;;;;51.30;28.60;;;;;;;7.70;100.00;100551.03;4992572;28;20621;-73
2022/11/16 04:38:59;;;;;;;47.47;27.67;;;;;;;7.63;100.00;100555.09;4990977;28;20290;-72
2022/11/16 04:44:09;;;;;;;51.20;28.90;;;;;;;7.61;100.00;100550.78;4996280;28;20211;-72
2022/11/16 04:49:20;;;;;;;48.93;27.33;;;;;;;7.61;100.00;100548.25;5007785;28;20636;-72
2022/11/16 04:51:46;;;;;;;50.13;27.87;;;;;;;7.59;100.00;100555.84;4991609;28;20211;-73
2022/11/16 04:54:11;;;;;;;52.07;28.70;;;;;;;7.55;100.00;100561.66;5006744;28;20256;-74
2022/11/16 04:56:37;;;;;;;45.90;26.20;;;;;;;7.55;100.00;100565.91;4992557;28;20183;-74
2022/11/16 04:59:02;;;;;;;50.83;26.70;;;;;;;7.52;100.00;100563.28;4994113;28;20614;-73
2022/11/16 05:04:12;;;;;;;51.27;27.87;;;;;;;7.49;100.00;100558.09;4991960;28;20703;-73
2022/11/16 05:06:38;;;;;;;51.10;28.23;;;;;;;7.48;100.00;100554.69;4991433;28;20191;-74
2022/11/16 05:09:03;;;;;;;52.63;28.43;;;;;;;7.45;100.00;100559.69;4990934;28;20180;-73
2022/11/16 05:11:29;;;;;;;52.17;28.20;;;;;;;7.44;100.00;100557.97;5000701;28;20294;-71
2022/11/16 05:13:55;;;;;;;53.07;28.63;;;;;;;7.43;100.00;100558.81;5007263;28;20215;-72
2022/11/16 05:16:20;;;;;;;55.03;28.90;;;;;;;7.40;100.00;100561.25;4992265;28;20250;-74
2022/11/16 05:20:59;;;;;;;50.27;27.53;;;;;;;7.42;100.00;100563.88;5007203;28;20188;-75
2022/11/16 05:21:32;;;;;;;54.97;27.53;;;;;;;7.39;100.00;100561.22;4993314;28;20700;-72
2022/11/16 05:26:41;;;;;;;52.93;28.73;;;;;;;7.36;100.00;100562.00;4994355;28;20188;-73
2022/11/16 05:29:06;;;;;;;56.07;28.73;;;;;;;7.37;100.00;100565.41;4991845;28;20219;-73
2022/11/16 05:31:32;;;;;;;54.13;28.80;;;;;;;7.35;100.00;100567.03;5002653;28;20228;-72
2022/11/16 05:33:57;;;;;;;58.93;29.13;;;;;;;7.30;100.00;100566.94;4988902;28;20653;-73
2022/11/16 05:36:23;;;;;;;55.53;29.10;;;;;;;7.31;100.00;100568.66;4987542;28;20243;-73
2022/11/16 05:38:48;;;;;;;56.17;29.03;;;;;;;7.30;100.00;100560.97;4997244;28;20611;-74
2022/11/16 05:41:14;;;;;;;52.57;28.97;;;;;;;7.27;100.00;100556.66;5006938;28;20206;-74
2022/11/16 05:43:40;;;;;;;55.83;28.17;;;;;;;7.26;100.00;100561.69;5006477;28;20282;-73
2022/11/16 05:46:12;;;;;;;50.27;27.23;;;;;;;7.27;100.00;100559.19;4983682;28;20200;-73
2022/11/16 05:48:38;;;;;;;56.60;28.83;;;;;;;7.28;100.00;100550.72;4996335;28;20319;-71
2022/11/16 05:51:05;;;;;;;58.47;29.53;;;;;;;7.27;100.00;100561.75;5001801;28;20216;-74
2022/11/16 05:53:32;;;;;;;52.50;28.27;;;;;;;7.28;100.00;100558.38;4988783;28;20291;-74
2022/11/16 05:55:58;;;;;;;54.20;27.87;;;;;;;7.29;100.00;100555.03;4989955;28;20278;-73
2022/11/16 05:58:23;;;;;;;52.97;27.93;;;;;;;7.31;100.00;100562.69;5004484;28;20242;-74
2022/11/16 06:00:50;;;;;;;49.33;26.63;;;;;;;7.31;100.00;100555.03;5004461;28;20211;-72
2022/11/16 06:03:16;;;;;;;51.73;28.60;;;;;;;7.28;100.00;100555.81;5003381;28;20653;-72
2022/11/16 06:05:42;;;;;;;51.30;27.13;;;;;;;7.31;100.00;100557.59;4986860;28;20188;-71
2022/11/16 06:08:10;;;;;;;51.80;28.70;;;;;;;7.27;100.00;100555.81;5002341;28;20396;-72
2022/11/16 06:10:36;;;;;;;52.60;28.50;;;;;;;7.25;100.00;100550.66;4989981;28;20724;-73
2022/11/16 06:13:02;;;;;;;46.90;27.33;;;;;;;7.25;100.00;100555.75;4989745;28;20215;-73
2022/11/16 06:15:27;;;;;;;48.93;26.47;;;;;;;7.24;100.00;100559.09;5006084;28;20227;-72
2022/11/16 06:17:53;;;;;;;48.23;27.70;;;;;;;7.24;100.00;100563.34;5006145;28;20279;-72
2022/11/16 06:20:19;;;;;;;50.87;27.37;;;;;;;7.25;100.00;100562.53;4996219;28;20737;-72
2022/11/16 06:22:45;;;;;;;48.57;27.87;;;;;;;7.24;100.00;100559.09;5006273;28;20954;-72
2022/11/16 06:25:11;;;;;;;53.30;29.57;;;;;;;7.24;100.00;100550.63;5006161;28;20199;-72
2022/11/16 06:27:40;;;;;;;51.83;29.47;;;;;;;7.23;100.00;100549.75;4989680;28;20283;-72
2022/11/16 06:30:08;;;;;;;50.77;29.50;;;;;;;7.23;100.00;100548.91;5004714;28;20208;-70
2022/11/16 06:32:33;;;;;;;51.47;27.60;;;;;;;7.21;100.00;100546.31;4997279;28;20190;-72
2022/11/16 06:34:59;;;;;;;51.30;27.63;;;;;;;7.21;100.00;100551.41;4989060;28;20278;-71
2022/11/16 06:37:25;;;;;;;53.23;29.20;;;;;;;7.17;100.00;100558.88;4987025;28;20378;-72
2022/11/16 06:39:51;;;;;;;53.07;29.97;;;;;;;7.18;100.00;100553.84;5005950;28;20211;-73
2022/11/16 06:42:17;;;;;;;55.23;29.30;;;;;;;7.20;100.00;100564.09;4995019;28;20184;-72
2022/11/16 06:44:42;;;;;;;51.23;27.63;;;;;;;7.21;100.00;100559.03;4993527;28;20196;-72
2022/11/16 06:47:11;;;;;;;55.20;28.27;;;;;;;7.19;100.00;100562.38;4988681;28;20280;-73
2022/11/16 06:49:36;;;;;;;53.13;28.43;;;;;;;7.17;100.00;100557.22;4988335;28;20351;-72
2022/11/16 06:52:07;;;;;;;56.23;28.83;;;;;;;7.18;100.00;100558.94;4992026;28;20358;-72
2022/11/16 06:54:33;;;;;;;50.97;28.63;;;;;;;7.19;100.00;100559.81;4997653;28;20693;-72
2022/11/16 06:56:58;;;;;;;53.17;29.93;;;;;;;7.20;100.00;100559.88;4989140;28;20190;-71
2022/11/16 06:59:25;;;;;;;55.27;29.40;;;;;;;7.21;100.00;100559.03;5005521;28;20191;-73
2022/11/16 07:01:50;;;;;;;50.40;28.47;;;;;;;7.23;100.00;100561.63;4995485;28;20247;-72
2022/11/16 07:04:16;;;;;;;50.17;29.17;;;;;;;7.23;100.00;100565.03;4990050;28;20207;-70
2022/11/16 07:06:48;;;;;;;48.23;28.37;;;;;;;7.24;100.00;100554.00;4987811;28;20199;-72
2022/11/16 07:09:15;;;;;;;48.83;28.00;;;;;;;7.24;100.00;100564.19;4999787;28;20199;-71
2022/11/16 07:11:41;;;;;;;49.63;29.13;;;;;;;7.25;100.00;100553.22;4986890;28;20208;-73
2022/11/16 07:14:07;;;;;;;50.80;28.27;;;;;;;7.27;100.00;100559.19;4988819;28;20211;-73
2022/11/16 07:16:37;;;;;;;46.37;28.60;;;;;;;7.31;100.00;100555.91;4996389;28;20217;-71
2022/11/16 07:19:04;;;;;;;48.63;27.43;;;;;;;7.31;100.00;100562.69;4988734;28;20326;-71
2022/11/16 07:21:32;;;;;;;49.93;28.93;;;;;;;7.30;100.00;100563.50;4992950;28;20208;-72
2022/11/16 07:24:00;;;;;;;50.77;30.27;;;;;;;7.31;100.00;100561.00;5003740;28;20195;-72
2022/11/16 07:26:25;;;;;;;48.37;28.87;;;;;;;7.30;100.00;100568.59;4988271;28;20196;-72
2022/11/16 07:28:59;;;;;;;49.07;29.53;;;;;;;7.32;100.00;100569.53;4988795;28;20219;-72
2022/11/16 07:31:25;;;;;;;48.50;28.37;;;;;;;7.29;100.00;100567.75;4987312;28;20277;-72
2022/11/16 07:34:10;;;;;;;49.60;29.77;;;;;;;7.31;100.00;100563.56;4979727;28;20207;-72
2022/11/16 07:36:45;;;;;;;50.93;29.07;;;;;;;7.33;100.00;100554.25;4978937;28;20187;-72
2022/11/16 07:39:10;;;;;;;53.13;30.33;;;;;;;7.31;100.00;100555.91;5004335;28;20247;-72
2022/11/16 07:41:41;;;;;;;52.77;31.27;;;;;;;7.33;100.00;100561.06;4986401;28;20675;-73
2022/11/16 07:44:22;;;;;;;51.40;30.03;;;;;;;7.34;100.00;100578.94;5002369;28;20668;-72
2022/11/16 07:47:00;;;;;;;49.67;29.17;;;;;;;7.34;100.00;100576.38;4984677;28;20293;-73
2022/11/16 07:49:27;;;;;;;51.37;30.33;;;;;;;7.35;100.00;100577.22;4983311;28;20218;-75
2022/11/16 07:51:56;;;;;;;46.43;29.03;;;;;;;7.36;100.00;100569.63;4987488;28;20223;-72
2022/11/16 07:54:33;;;;;;;50.20;31.57;;;;;;;7.37;100.00;100570.50;4988511;28;20197;-74
2022/11/16 07:56:59;;;;;;;48.10;28.70;;;;;;;7.31;100.00;100572.88;4988746;28;20556;-73
2022/11/16 07:59:26;;;;;;;55.10;31.40;;;;;;;7.31;100.00;100563.56;4990662;28;20179;-73
2022/11/16 08:01:51;;;;;;;49.17;30.10;;;;;;;7.33;100.00;100567.00;4991440;28;20199;-73
2022/11/16 08:04:17;;;;;;;50.97;30.63;;;;;;;7.33;100.00;100569.53;5006281;28;20188;-73
2022/11/16 08:06:43;;;;;;;48.73;30.10;;;;;;;7.33;100.00;100561.06;4988686;28;20203;-73
2022/11/16 08:09:09;;;;;;;53.90;31.03;;;;;;;7.32;100.00;100570.38;5000669;28;20558;-74
2022/11/16 08:11:35;;;;;;;48.60;29.07;;;;;;;7.29;100.00;100572.84;5001644;28;20212;-73
2022/11/16 08:14:00;;;;;;;52.03;30.33;;;;;;;7.33;100.00;100577.19;4991614;28;20194;-71
2022/11/16 08:16:26;;;;;;;53.27;30.63;;;;;;;7.33;100.00;100577.19;4984683;28;20282;-73
2022/11/16 08:19:00;;;;;;;50.37;29.87;;;;;;;7.32;100.00;100572.91;4991899;28;20195;-72
2022/11/16 08:21:25;;;;;;;51.77;30.80;;;;;;;7.34;100.00;100581.47;5007792;28;20737;-73
2022/11/16 08:23:51;;;;;;;53.13;29.90;;;;;;;7.33;100.00;100581.44;5006233;28;20200;-74
2022/11/16 08:26:18;;;;;;;53.03;29.57;;;;;;;7.32;100.00;100575.47;5005869;28;20238;-71
2022/11/16 08:28:52;;;;;;;53.97;30.00;;;;;;;7.23;100.00;100580.31;4990207;28;20192;-73
2022/11/16 08:31:27;;;;;;;49.73;29.57;;;;;;;7.30;100.00;100576.25;5003698;28;20207;-73
2022/11/16 08:33:59;;;;;;;56.47;30.20;;;;;;;7.31;100.00;100572.88;5001901;28;20188;-73
2022/11/16 08:36:24;;;;;;;54.37;29.40;;;;;;;7.31;100.00;100578.84;4985354;28;20269;-74
2022/11/16 08:38:51;;;;;;;55.63;30.70;;;;;;;7.28;100.00;100583.84;4991781;28;20627;-73
2022/11/16 08:41:20;;;;;;;52.83;29.63;;;;;;;7.28;100.00;100581.28;4979916;28;20211;-74
2022/11/16 08:43:47;;;;;;;55.83;31.07;;;;;;;7.34;100.00;100585.69;4991758;28;20196;-72
2022/11/16 08:46:13;;;;;;;55.43;29.40;;;;;;;7.33;100.00;100578.88;5005816;28;20557;-73
2022/11/16 08:48:41;;;;;;;56.47;28.97;;;;;;;7.29;100.00;100587.25;4989791;28;20238;-74
2022/11/16 08:51:10;;;;;;;53.57;29.67;;;;;;;7.26;100.00;100592.25;5004203;28;20212;-73
2022/11/16 08:53:37;;;;;;;56.87;31.87;;;;;;;7.25;100.00;100590.53;4989414;28;20195;-74
2022/11/16 08:56:07;;;;;;;56.77;31.00;;;;;;;7.23;100.00;100582.84;4989695;28;20184;-73
2022/11/16 08:58:38;;;;;;;63.00;32.23;;;;;;;7.23;100.00;100590.47;4991615;28;20242;-73
2022/11/16 09:01:12;;;;;;;60.73;31.70;;;;;;;7.22;100.00;100587.88;4991333;28;20199;-73
2022/11/16 09:03:39;;;;;;;58.73;30.40;;;;;;;7.24;100.00;100602.38;5004040;28;20695;-73
2022/11/16 09:06:05;;;;;;;62.73;32.10;;;;;;;7.25;100.00;100593.06;4991114;28;20203;-74
2022/11/16 09:08:31;;;;;;;65.40;30.47;;;;;;;7.26;100.00;100587.16;4990064;28;20211;-73
2022/11/16 09:10:56;;;;;;;64.03;32.43;;;;;;;7.20;100.00;100590.41;4988078;28;20228;-73
2022/11/16 09:13:22;;;;;;;57.20;31.33;;;;;;;7.24;100.00;100599.00;4992256;28;20266;-74
2022/11/16 09:15:53;;;;;;;59.80;30.73;;;;;;;7.21;100.00;100591.25;4992186;28;20188;-70
2022/11/16 09:18:19;;;;;;;55.10;29.37;;;;;;;7.24;100.00;100597.28;4997748;28;20199;-71
2022/11/16 09:20:44;;;;;;;60.87;29.93;;;;;;;7.21;100.00;100593.81;4991777;28;20228;-74
2022/11/16 09:23:10;;;;;;;58.03;30.53;;;;;;;7.14;100.00;100602.94;4992326;28;20246;-72
2022/11/16 09:25:35;;;;;;;58.03;30.60;;;;;;;7.16;100.00;100610.63;4991801;28;20927;-71
2022/11/16 09:28:00;;;;;;;63.93;30.57;;;;;;;7.21;100.00;100609.09;4990333;28;20270;-73
2022/11/16 09:30:26;;;;;;;61.30;29.97;;;;;;;7.23;100.00;100600.66;4990950;28;20226;-72
2022/11/16 09:32:51;;;;;;;64.53;31.73;;;;;;;7.21;100.00;100604.88;4991975;28;20195;-74
2022/11/16 09:35:17;;;;;;;64.30;30.27;;;;;;;7.21;100.00;100606.53;4991750;28;20203;-72
2022/11/16 09:37:42;;;;;;;64.67;31.63;;;;;;;7.16;100.00;100605.53;4997774;28;20234;-74
2022/11/16 09:40:10;;;;;;;62.57;30.40;;;;;;;7.18;100.00;100614.13;4991748;28;20703;-73
2022/11/16 09:42:42;;;;;;;67.53;32.70;;;;;;;7.18;100.00;100616.66;4991423;28;20192;-73
2022/11/16 09:45:30;;;;;;;62.47;30.90;;;;;;;7.18;100.00;100621.75;4991589;28;20230;-73
2022/11/16 09:48:01;;;;;;;68.67;31.13;;;;;;;7.15;100.00;100617.44;4988917;28;20228;-73
2022/11/16 09:50:49;;;;;;;66.63;31.20;;;;;;;7.14;100.00;100619.94;4985835;28;20347;-73
2022/11/16 09:53:32;;;;;;;61.77;29.77;;;;;;;7.16;100.00;100619.16;4983751;28;20191;-72
2022/11/16 09:56:03;;;;;;;60.93;29.83;;;;;;;7.16;100.00;100621.69;4990404;28;20191;-73
2022/11/16 09:58:59;;;;;;;62.07;29.90;;;;;;;7.15;100.00;100637.81;4991419;28;20192;-72
2022/11/16 10:01:33;;;;;;;62.53;30.37;;;;;;;7.12;100.00;100626.63;4991317;28;20342;-71
2022/11/16 10:04:10;;;;;;;70.97;33.03;;;;;;;7.08;100.00;100627.38;4991434;28;20550;-73
2022/11/16 10:06:44;;;;;;;70.77;33.53;;;;;;;7.13;100.00;100629.22;4990413;28;20191;-72
2022/11/16 10:09:11;;;;;;;67.73;31.70;;;;;;;7.13;100.00;100620.72;4989755;28;20276;-73
2022/11/16 10:11:39;;;;;;;73.73;32.57;;;;;;;7.14;100.00;100633.50;4991255;28;20214;-73
2022/11/16 10:14:30;;;;;;;74.33;32.23;;;;;;;7.15;100.00;100634.38;4988384;28;20645;-73
2022/11/16 10:17:04;;;;;;;78.27;32.93;;;;;;;7.14;100.00;100628.41;4990273;28;20188;-73
2022/11/16 10:19:33;;;;;;;73.63;32.27;;;;;;;7.18;100.00;100640.41;4991192;28;20226;-73
2022/11/16 10:22:17;;;;;;;72.37;33.23;;;;;;;7.22;100.00;100646.44;4990484;28;20207;-73
2022/11/16 10:25:09;;;;;;;69.47;32.70;;;;;;;7.22;100.00;100639.69;4990822;28;20199;-73
2022/11/16 10:27:45;;;;;;;64.90;31.07;;;;;;;7.23;100.00;100632.94;4994323;28;20224;-72
2022/11/16 10:30:14;;;;;;;69.60;31.90;;;;;;;7.21;100.00;100635.41;4987624;28;20235;-73
2022/11/16 10:32:53;;;;;;;71.53;33.20;;;;;;;7.22;100.00;100639.69;4990762;28;20188;-73
2022/11/16 10:35:30;;;;;;;71.60;33.47;;;;;;;7.25;100.00;100632.16;5005676;28;20200;-73
2022/11/16 10:37:58;;;;;;;71.83;32.47;;;;;;;7.29;100.00;100631.41;4989713;28;20219;-74
2022/11/16 10:40:38;;;;;;;70.80;32.90;;;;;;;7.31;100.00;100624.69;4990622;28;20211;-71
2022/11/16 10:43:34;;;;;;;72.20;33.23;;;;;;;7.35;100.00;100620.53;4992990;28;20191;-69
2022/11/16 10:46:15;;;;;;;72.73;32.83;;;;;;;7.34;100.00;100627.31;4992726;28;20214;-73
2022/11/16 10:48:59;;;;;;;74.57;33.87;;;;;;;7.37;100.00;100622.28;4987542;28;20223;-71
2022/11/16 10:51:24;;;;;;;72.07;32.90;;;;;;;7.38;100.00;100628.25;4994086;28;20235;-73
2022/11/16 10:53:51;;;;;;;73.70;34.27;;;;;;;7.39;100.00;100622.34;4990442;28;20195;-73
2022/11/16 10:56:30;;;;;;;72.30;31.87;;;;;;;7.41;100.00;100616.47;4988834;28;20282;-72
2022/11/16 10:59:04;;;;;;;78.20;33.70;;;;;;;7.41;100.00;100619.03;4989247;28;20677;-72
2022/11/16 11:01:35;;;;;;;81.80;34.93;;;;;;;7.45;100.00;100614.88;4992045;28;20212;-74
2022/11/16 11:04:31;;;;;;;81.10;34.73;;;;;;;7.40;100.00;100613.88;4990186;28;20242;-73
2022/11/16 11:07:20;;;;;;;80.93;33.03;;;;;;;7.45;100.00;100613.19;4992752;28;20207;-71
2022/11/16 11:09:52;;;;;;;79.63;34.97;;;;;;;7.46;100.00;100608.97;4988055;28;20229;-72
2022/11/16 11:12:38;;;;;;;82.20;34.23;;;;;;;7.48;100.00;100610.75;4987386;28;20265;-70
2022/11/16 11:15:10;;;;;;;81.90;34.00;;;;;;;7.49;100.00;100611.59;4989786;28;20187;-71
2022/11/16 11:17:46;;;;;;;80.90;35.07;;;;;;;7.47;100.00;100609.00;4988956;28;20227;-72
2022/11/16 11:20:15;;;;;;;85.90;34.33;;;;;;;7.52;100.00;100601.50;4990181;28;20241;-71
2022/11/16 11:23:03;;;;;;;77.10;34.33;;;;;;;7.57;100.00;100603.34;4978177;28;20183;-73
2022/11/16 11:25:38;;;;;;;82.77;34.90;;;;;;;7.52;100.00;100604.91;4987527;28;20200;-72
2022/11/16 11:28:19;;;;;;;78.70;34.23;;;;;;;7.52;100.00;100602.38;4989371;28;20273;-72
2022/11/16 11:31:24;;;;;;;82.43;35.10;;;;;;;7.53;100.00;100603.22;4991699;28;20219;-72
2022/11/16 11:33:58;;;;;;;81.30;34.50;;;;;;;7.57;100.00;100597.38;5006156;28;20211;-73
2022/11/16 11:36:45;;;;;;;82.43;33.73;;;;;;;7.59;100.00;100599.16;4994183;28;20199;-73
2022/11/16 11:39:11;;;;;;;85.37;36.30;;;;;;;7.60;100.00;100593.22;4994029;28;20203;-72
2022/11/16 11:41:40;;;;;;;85.07;34.43;;;;;;;7.64;100.00;100587.38;4994065;28;20653;-72
2022/11/16 11:44:15;;;;;;;86.87;35.07;;;;;;;7.65;100.00;100598.47;4993820;28;20198;-72
2022/11/16 11:47:01;;;;;;;80.37;34.53;;;;;;;7.66;100.00;100588.31;4993729;28;20203;-71
2022/11/16 11:49:36;;;;;;;86.30;36.10;;;;;;;7.70;100.00;100591.78;4990293;28;20679;-70
2022/11/16 11:52:10;;;;;;;86.70;37.17;;;;;;;7.70;100.00;100594.34;4991654;28;20264;-71
2022/11/16 11:54:43;;;;;;;85.27;35.33;;;;;;;7.70;100.00;100584.16;4990586;28;20203;-72
2022/11/16 11:57:14;;;;;;;91.03;38.73;;;;;;;7.70;100.00;100582.44;4993849;28;20183;-72
2022/11/16 11:59:40;;;;;;;92.60;37.03;;;;;;;7.71;100.00;100593.53;4993731;28;20259;-72
2022/11/16 12:02:38;;;;;;;96.23;37.93;;;;;;;7.72;100.00;100592.69;4993738;28;20212;-71
2022/11/16 12:05:34;;;;;;;93.30;39.00;;;;;;;7.74;100.00;100594.44;5011822;28;20204;-71
2022/11/16 12:08:42;;;;;;;88.87;37.90;;;;;;;7.76;100.00;100587.72;4992689;28;20191;-73
2022/11/16 12:11:25;;;;;;;92.37;37.77;;;;;;;7.77;100.00;100589.44;4999386;28;20234;-72
2022/11/16 12:14:14;;;;;;;92.33;38.43;;;;;;;7.74;100.00;100591.91;4989710;28;20196;-70